sensor_id;sensor_type;location;lat;lon;timestamp;P1;durP1;ratioP1;P2;durP2;ratioP2
69623;SDS011;56843;52.020;5.670;2023-06-22T00:00:43;6.40;;;2.57;;
69623;SDS011;56843;52.020;5.670;2023-06-22T00:02:14;6.25;;;2.90;;
69623;SDS011;56843;52.020;5.670;2023-06-22T00:03:45;7.87;;;3.37;;
69623;SDS011;56843;52.020;5.670;2023-06-22T00:05:15;8.20;;;2.90;;
69623;SDS011;56843;52.020;5.670;2023-06-22T00:06:46;7.18;;;2.83;;
69623;SDS011;56843;52.020;5.670;2023-06-22T00:08:17;6.23;;;3.10;;
69623;SDS011;56843;52.020;5.670;2023-06-22T00:09:48;6.40;;;2.90;;
69623;SDS011;56843;52.020;5.670;2023-06-22T00:11:18;8.20;;;2.87;;
69623;SDS011;56843;52.020;5.670;2023-06-22T00:12:50;7.00;;;2.93;;
69623;SDS011;56843;52.020;5.670;2023-06-22T00:14:20;10.63;;;2.97;;
69623;SDS011;56843;52.020;5.670;2023-06-22T00:15:51;5.70;;;2.60;;
69623;SDS011;56843;52.020;5.670;2023-06-22T00:17:21;10.10;;;2.90;;
69623;SDS011;56843;52.020;5.670;2023-06-22T00:18:52;6.80;;;2.60;;
69623;SDS011;56843;52.020;5.670;2023-06-22T00:20:22;5.83;;;2.60;;
69623;SDS011;56843;52.020;5.670;2023-06-22T00:21:57;9.70;;;3.00;;
69623;SDS011;56843;52.020;5.670;2023-06-22T00:23:30;5.85;;;2.60;;
69623;SDS011;56843;52.020;5.670;2023-06-22T00:25:06;7.15;;;2.20;;
69623;SDS011;56843;52.020;5.670;2023-06-22T00:26:37;7.20;;;2.58;;
69623;SDS011;56843;52.020;5.670;2023-06-22T00:28:08;9.07;;;2.40;;
69623;SDS011;56843;52.020;5.670;2023-06-22T00:29:39;5.83;;;2.40;;
69623;SDS011;56843;52.020;5.670;2023-06-22T00:31:09;6.05;;;2.58;;
69623;SDS011;56843;52.020;5.670;2023-06-22T00:32:40;6.70;;;2.63;;
69623;SDS011;56843;52.020;5.670;2023-06-22T00:34:11;6.63;;;2.23;;
69623;SDS011;56843;52.020;5.670;2023-06-22T00:35:41;8.80;;;2.50;;
69623;SDS011;56843;52.020;5.670;2023-06-22T00:37:12;6.57;;;2.80;;
69623;SDS011;56843;52.020;5.670;2023-06-22T00:38:43;7.13;;;2.70;;
69623;SDS011;56843;52.020;5.670;2023-06-22T00:40:13;9.10;;;2.83;;
69623;SDS011;56843;52.020;5.670;2023-06-22T00:41:44;9.98;;;2.72;;
69623;SDS011;56843;52.020;5.670;2023-06-22T00:43:15;8.47;;;2.80;;
69623;SDS011;56843;52.020;5.670;2023-06-22T00:44:45;7.03;;;2.97;;
69623;SDS011;56843;52.020;5.670;2023-06-22T00:46:16;6.93;;;2.77;;
69623;SDS011;56843;52.020;5.670;2023-06-22T00:47:47;5.82;;;2.53;;
69623;SDS011;56843;52.020;5.670;2023-06-22T00:49:17;7.43;;;2.87;;
69623;SDS011;56843;52.020;5.670;2023-06-22T00:50:48;6.15;;;2.70;;
69623;SDS011;56843;52.020;5.670;2023-06-22T00:52:24;7.10;;;3.05;;
69623;SDS011;56843;52.020;5.670;2023-06-22T00:53:59;6.63;;;3.13;;
69623;SDS011;56843;52.020;5.670;2023-06-22T00:55:30;8.43;;;3.60;;
69623;SDS011;56843;52.020;5.670;2023-06-22T00:57:01;7.25;;;3.10;;
69623;SDS011;56843;52.020;5.670;2023-06-22T00:58:32;6.43;;;2.90;;
69623;SDS011;56843;52.020;5.670;2023-06-22T01:00:03;7.43;;;3.47;;
69623;SDS011;56843;52.020;5.670;2023-06-22T01:03:33;7.15;;;2.78;;
69623;SDS011;56843;52.020;5.670;2023-06-22T01:05:04;8.23;;;3.33;;
69623;SDS011;56843;52.020;5.670;2023-06-22T01:06:38;8.20;;;3.40;;
69623;SDS011;56843;52.020;5.670;2023-06-22T01:09:49;6.53;;;3.08;;
69623;SDS011;56843;52.020;5.670;2023-06-22T01:11:25;7.45;;;3.40;;
69623;SDS011;56843;52.020;5.670;2023-06-22T01:13:07;7.97;;;3.20;;
69623;SDS011;56843;52.020;5.670;2023-06-22T01:14:43;7.80;;;2.97;;
69623;SDS011;56843;52.020;5.670;2023-06-22T01:16:31;9.55;;;3.25;;
69623;SDS011;56843;52.020;5.670;2023-06-22T01:18:04;8.33;;;3.00;;
69623;SDS011;56843;52.020;5.670;2023-06-22T01:21:23;9.18;;;3.38;;
69623;SDS011;56843;52.020;5.670;2023-06-22T01:24:45;8.18;;;3.30;;
69623;SDS011;56843;52.020;5.670;2023-06-22T01:26:28;9.20;;;3.60;;
69623;SDS011;56843;52.020;5.670;2023-06-22T01:28:16;8.18;;;3.45;;
69623;SDS011;56843;52.020;5.670;2023-06-22T01:30:03;8.02;;;3.13;;
69623;SDS011;56843;52.020;5.670;2023-06-22T01:31:39;7.63;;;3.45;;
69623;SDS011;56843;52.020;5.670;2023-06-22T01:33:11;10.43;;;3.90;;
69623;SDS011;56843;52.020;5.670;2023-06-22T01:34:44;6.73;;;2.97;;
69623;SDS011;56843;52.020;5.670;2023-06-22T01:36:16;10.65;;;3.58;;
69623;SDS011;56843;52.020;5.670;2023-06-22T01:37:49;8.13;;;3.47;;
69623;SDS011;56843;52.020;5.670;2023-06-22T01:39:21;7.75;;;3.40;;
69623;SDS011;56843;52.020;5.670;2023-06-22T01:40:57;8.38;;;3.08;;
69623;SDS011;56843;52.020;5.670;2023-06-22T01:42:29;8.15;;;3.30;;
69623;SDS011;56843;52.020;5.670;2023-06-22T01:44:00;8.65;;;3.60;;
69623;SDS011;56843;52.020;5.670;2023-06-22T01:45:31;9.13;;;3.60;;
69623;SDS011;56843;52.020;5.670;2023-06-22T01:47:01;7.30;;;3.10;;
69623;SDS011;56843;52.020;5.670;2023-06-22T01:48:32;8.27;;;3.65;;
69623;SDS011;56843;52.020;5.670;2023-06-22T01:50:03;8.93;;;3.00;;
69623;SDS011;56843;52.020;5.670;2023-06-22T01:51:37;8.53;;;3.63;;
69623;SDS011;56843;52.020;5.670;2023-06-22T01:53:07;8.43;;;3.30;;
69623;SDS011;56843;52.020;5.670;2023-06-22T01:54:38;10.60;;;3.60;;
69623;SDS011;56843;52.020;5.670;2023-06-22T01:56:09;8.18;;;3.33;;
69623;SDS011;56843;52.020;5.670;2023-06-22T01:57:40;6.87;;;3.30;;
69623;SDS011;56843;52.020;5.670;2023-06-22T01:59:17;6.93;;;3.10;;
69623;SDS011;56843;52.020;5.670;2023-06-22T02:00:55;9.35;;;3.70;;
69623;SDS011;56843;52.020;5.670;2023-06-22T02:04:38;8.23;;;3.70;;
69623;SDS011;56843;52.020;5.670;2023-06-22T02:06:13;8.90;;;3.07;;
69623;SDS011;56843;52.020;5.670;2023-06-22T02:08:13;8.45;;;3.53;;
69623;SDS011;56843;52.020;5.670;2023-06-22T02:09:51;10.20;;;3.22;;
69623;SDS011;56843;52.020;5.670;2023-06-22T02:11:25;7.53;;;3.30;;
69623;SDS011;56843;52.020;5.670;2023-06-22T02:12:57;6.43;;;3.03;;
69623;SDS011;56843;52.020;5.670;2023-06-22T02:14:30;8.68;;;3.58;;
69623;SDS011;56843;52.020;5.670;2023-06-22T02:16:00;8.70;;;4.07;;
69623;SDS011;56843;52.020;5.670;2023-06-22T02:17:32;8.10;;;3.50;;
69623;SDS011;56843;52.020;5.670;2023-06-22T02:19:04;6.78;;;3.03;;
69623;SDS011;56843;52.020;5.670;2023-06-22T02:20:38;9.00;;;3.53;;
69623;SDS011;56843;52.020;5.670;2023-06-22T02:22:09;6.78;;;3.28;;
69623;SDS011;56843;52.020;5.670;2023-06-22T02:23:40;6.88;;;3.05;;
69623;SDS011;56843;52.020;5.670;2023-06-22T02:25:11;8.97;;;3.40;;
69623;SDS011;56843;52.020;5.670;2023-06-22T02:26:42;9.55;;;3.38;;
69623;SDS011;56843;52.020;5.670;2023-06-22T02:28:14;9.13;;;3.60;;
69623;SDS011;56843;52.020;5.670;2023-06-22T02:29:45;7.67;;;3.30;;
69623;SDS011;56843;52.020;5.670;2023-06-22T02:31:15;7.93;;;3.07;;
69623;SDS011;56843;52.020;5.670;2023-06-22T02:32:46;7.75;;;3.38;;
69623;SDS011;56843;52.020;5.670;2023-06-22T02:34:19;8.50;;;3.08;;
69623;SDS011;56843;52.020;5.670;2023-06-22T02:35:50;7.37;;;3.20;;
69623;SDS011;56843;52.020;5.670;2023-06-22T02:37:20;8.40;;;3.40;;
69623;SDS011;56843;52.020;5.670;2023-06-22T02:38:52;8.48;;;2.97;;
69623;SDS011;56843;52.020;5.670;2023-06-22T02:40:24;8.73;;;3.35;;
69623;SDS011;56843;52.020;5.670;2023-06-22T02:41:54;8.27;;;3.10;;
69623;SDS011;56843;52.020;5.670;2023-06-22T02:43:26;8.90;;;3.63;;
69623;SDS011;56843;52.020;5.670;2023-06-22T02:44:56;8.60;;;3.72;;
69623;SDS011;56843;52.020;5.670;2023-06-22T02:46:27;7.37;;;3.00;;
69623;SDS011;56843;52.020;5.670;2023-06-22T02:47:58;10.07;;;2.97;;
69623;SDS011;56843;52.020;5.670;2023-06-22T02:49:28;10.48;;;3.20;;
69623;SDS011;56843;52.020;5.670;2023-06-22T02:50:59;8.37;;;3.30;;
69623;SDS011;56843;52.020;5.670;2023-06-22T02:52:29;8.48;;;3.15;;
69623;SDS011;56843;52.020;5.670;2023-06-22T02:54:01;8.00;;;3.72;;
69623;SDS011;56843;52.020;5.670;2023-06-22T02:55:32;7.63;;;3.50;;
69623;SDS011;56843;52.020;5.670;2023-06-22T02:57:03;10.67;;;3.90;;
69623;SDS011;56843;52.020;5.670;2023-06-22T02:58:34;7.70;;;3.40;;
69623;SDS011;56843;52.020;5.670;2023-06-22T03:00:12;8.23;;;3.45;;
69623;SDS011;56843;52.020;5.670;2023-06-22T03:01:51;6.72;;;3.22;;
69623;SDS011;56843;52.020;5.670;2023-06-22T03:03:29;8.18;;;3.83;;
69623;SDS011;56843;52.020;5.670;2023-06-22T03:04:59;7.97;;;3.27;;
69623;SDS011;56843;52.020;5.670;2023-06-22T03:06:32;7.30;;;3.70;;
69623;SDS011;56843;52.020;5.670;2023-06-22T03:08:02;8.23;;;3.33;;
69623;SDS011;56843;52.020;5.670;2023-06-22T03:09:36;8.50;;;3.28;;
69623;SDS011;56843;52.020;5.670;2023-06-22T03:11:07;8.82;;;3.90;;
69623;SDS011;56843;52.020;5.670;2023-06-22T03:12:38;7.87;;;3.23;;
69623;SDS011;56843;52.020;5.670;2023-06-22T03:14:08;13.10;;;3.67;;
69623;SDS011;56843;52.020;5.670;2023-06-22T03:15:39;7.73;;;3.87;;
69623;SDS011;56843;52.020;5.670;2023-06-22T03:17:10;10.43;;;3.70;;
69623;SDS011;56843;52.020;5.670;2023-06-22T03:18:41;9.60;;;3.83;;
69623;SDS011;56843;52.020;5.670;2023-06-22T03:20:11;7.13;;;3.42;;
69623;SDS011;56843;52.020;5.670;2023-06-22T03:21:42;8.07;;;3.30;;
69623;SDS011;56843;52.020;5.670;2023-06-22T03:23:13;8.50;;;3.92;;
69623;SDS011;56843;52.020;5.670;2023-06-22T03:24:44;9.77;;;3.80;;
69623;SDS011;56843;52.020;5.670;2023-06-22T03:26:17;14.95;;;4.18;;
69623;SDS011;56843;52.020;5.670;2023-06-22T03:27:49;8.57;;;4.03;;
69623;SDS011;56843;52.020;5.670;2023-06-22T03:29:19;8.73;;;4.17;;
69623;SDS011;56843;52.020;5.670;2023-06-22T03:30:50;10.60;;;4.53;;
69623;SDS011;56843;52.020;5.670;2023-06-22T03:32:21;7.32;;;4.13;;
69623;SDS011;56843;52.020;5.670;2023-06-22T03:33:51;9.83;;;4.50;;
69623;SDS011;56843;52.020;5.670;2023-06-22T03:35:22;8.05;;;4.18;;
69623;SDS011;56843;52.020;5.670;2023-06-22T03:36:52;13.03;;;4.90;;
69623;SDS011;56843;52.020;5.670;2023-06-22T03:38:23;10.07;;;3.75;;
69623;SDS011;56843;52.020;5.670;2023-06-22T03:39:56;8.00;;;3.60;;
69623;SDS011;56843;52.020;5.670;2023-06-22T03:41:26;11.07;;;4.00;;
69623;SDS011;56843;52.020;5.670;2023-06-22T03:42:57;12.30;;;4.57;;
69623;SDS011;56843;52.020;5.670;2023-06-22T03:44:27;9.20;;;4.47;;
69623;SDS011;56843;52.020;5.670;2023-06-22T03:45:58;8.23;;;3.80;;
69623;SDS011;56843;52.020;5.670;2023-06-22T03:47:28;11.83;;;4.80;;
69623;SDS011;56843;52.020;5.670;2023-06-22T03:49:01;12.27;;;4.28;;
69623;SDS011;56843;52.020;5.670;2023-06-22T03:50:33;11.95;;;4.40;;
69623;SDS011;56843;52.020;5.670;2023-06-22T03:52:04;9.43;;;4.37;;
69623;SDS011;56843;52.020;5.670;2023-06-22T03:53:35;8.90;;;3.90;;
69623;SDS011;56843;52.020;5.670;2023-06-22T03:55:06;11.23;;;4.38;;
69623;SDS011;56843;52.020;5.670;2023-06-22T03:56:37;8.30;;;4.20;;
69623;SDS011;56843;52.020;5.670;2023-06-22T03:58:08;9.50;;;4.33;;
69623;SDS011;56843;52.020;5.670;2023-06-22T03:59:39;10.05;;;4.35;;
69623;SDS011;56843;52.020;5.670;2023-06-22T04:01:10;12.82;;;5.95;;
69623;SDS011;56843;52.020;5.670;2023-06-22T04:02:41;10.63;;;4.53;;
69623;SDS011;56843;52.020;5.670;2023-06-22T04:04:12;11.10;;;4.53;;
69623;SDS011;56843;52.020;5.670;2023-06-22T04:05:43;12.00;;;4.93;;
69623;SDS011;56843;52.020;5.670;2023-06-22T04:07:13;10.57;;;5.23;;
69623;SDS011;56843;52.020;5.670;2023-06-22T04:08:45;11.90;;;5.27;;
69623;SDS011;56843;52.020;5.670;2023-06-22T04:10:20;13.95;;;5.15;;
69623;SDS011;56843;52.020;5.670;2023-06-22T04:11:51;13.35;;;5.13;;
69623;SDS011;56843;52.020;5.670;2023-06-22T04:13:22;12.30;;;5.40;;
69623;SDS011;56843;52.020;5.670;2023-06-22T04:14:52;12.40;;;5.45;;
69623;SDS011;56843;52.020;5.670;2023-06-22T04:16:23;14.57;;;5.53;;
69623;SDS011;56843;52.020;5.670;2023-06-22T04:17:54;11.32;;;6.03;;
69623;SDS011;56843;52.020;5.670;2023-06-22T04:19:26;10.37;;;5.60;;
69623;SDS011;56843;52.020;5.670;2023-06-22T04:20:56;9.85;;;4.47;;
69623;SDS011;56843;52.020;5.670;2023-06-22T04:22:27;9.70;;;5.60;;
69623;SDS011;56843;52.020;5.670;2023-06-22T04:23:57;12.43;;;5.67;;
69623;SDS011;56843;52.020;5.670;2023-06-22T04:25:28;14.33;;;5.73;;
69623;SDS011;56843;52.020;5.670;2023-06-22T04:26:58;12.13;;;5.73;;
69623;SDS011;56843;52.020;5.670;2023-06-22T04:28:32;9.70;;;5.85;;
69623;SDS011;56843;52.020;5.670;2023-06-22T04:30:06;12.48;;;6.10;;
69623;SDS011;56843;52.020;5.670;2023-06-22T04:31:37;15.48;;;6.70;;
69623;SDS011;56843;52.020;5.670;2023-06-22T04:33:08;13.82;;;6.20;;
69623;SDS011;56843;52.020;5.670;2023-06-22T04:34:39;12.20;;;6.13;;
69623;SDS011;56843;52.020;5.670;2023-06-22T04:36:09;12.10;;;6.75;;
69623;SDS011;56843;52.020;5.670;2023-06-22T04:37:43;16.87;;;7.87;;
69623;SDS011;56843;52.020;5.670;2023-06-22T04:39:14;15.57;;;7.90;;
69623;SDS011;56843;52.020;5.670;2023-06-22T04:40:45;15.57;;;7.50;;
69623;SDS011;56843;52.020;5.670;2023-06-22T04:42:16;19.77;;;7.97;;
69623;SDS011;56843;52.020;5.670;2023-06-22T04:43:46;14.95;;;7.72;;
69623;SDS011;56843;52.020;5.670;2023-06-22T04:45:23;15.25;;;8.13;;
69623;SDS011;56843;52.020;5.670;2023-06-22T04:46:55;19.43;;;8.63;;
69623;SDS011;56843;52.020;5.670;2023-06-22T04:48:32;17.60;;;8.13;;
69623;SDS011;56843;52.020;5.670;2023-06-22T04:50:03;15.95;;;7.90;;
69623;SDS011;56843;52.020;5.670;2023-06-22T04:51:39;14.90;;;8.27;;
69623;SDS011;56843;52.020;5.670;2023-06-22T04:53:11;15.20;;;8.65;;
69623;SDS011;56843;52.020;5.670;2023-06-22T04:54:43;19.13;;;9.15;;
69623;SDS011;56843;52.020;5.670;2023-06-22T04:56:20;16.97;;;8.33;;
69623;SDS011;56843;52.020;5.670;2023-06-22T04:57:51;19.17;;;9.37;;
69623;SDS011;56843;52.020;5.670;2023-06-22T04:59:22;13.48;;;6.60;;
69623;SDS011;56843;52.020;5.670;2023-06-22T05:00:58;16.90;;;8.33;;
69623;SDS011;56843;52.020;5.670;2023-06-22T05:02:28;22.73;;;8.60;;
69623;SDS011;56843;52.020;5.670;2023-06-22T05:04:02;19.02;;;8.70;;
69623;SDS011;56843;52.020;5.670;2023-06-22T05:05:35;17.08;;;8.63;;
69623;SDS011;56843;52.020;5.670;2023-06-22T05:07:05;21.23;;;8.80;;
69623;SDS011;56843;52.020;5.670;2023-06-22T05:08:36;16.53;;;8.97;;
69623;SDS011;56843;52.020;5.670;2023-06-22T05:10:06;15.80;;;8.53;;
69623;SDS011;56843;52.020;5.670;2023-06-22T05:11:37;16.02;;;8.07;;
69623;SDS011;56843;52.020;5.670;2023-06-22T05:13:08;17.13;;;8.90;;
69623;SDS011;56843;52.020;5.670;2023-06-22T05:14:38;18.77;;;9.67;;
69623;SDS011;56843;52.020;5.670;2023-06-22T05:16:08;19.03;;;8.80;;
69623;SDS011;56843;52.020;5.670;2023-06-22T05:17:39;16.70;;;8.38;;
69623;SDS011;56843;52.020;5.670;2023-06-22T05:19:15;18.02;;;8.90;;
69623;SDS011;56843;52.020;5.670;2023-06-22T05:20:45;17.33;;;8.80;;
69623;SDS011;56843;52.020;5.670;2023-06-22T05:22:16;18.03;;;8.57;;
69623;SDS011;56843;52.020;5.670;2023-06-22T05:23:46;16.23;;;8.65;;
69623;SDS011;56843;52.020;5.670;2023-06-22T05:25:17;15.40;;;7.93;;
69623;SDS011;56843;52.020;5.670;2023-06-22T05:26:47;16.95;;;9.10;;
69623;SDS011;56843;52.020;5.670;2023-06-22T05:28:18;14.17;;;7.70;;
69623;SDS011;56843;52.020;5.670;2023-06-22T05:29:52;16.08;;;8.55;;
69623;SDS011;56843;52.020;5.670;2023-06-22T05:31:23;12.77;;;5.57;;
69623;SDS011;56843;52.020;5.670;2023-06-22T05:32:53;13.85;;;7.38;;
69623;SDS011;56843;52.020;5.670;2023-06-22T05:34:24;18.47;;;9.57;;
69623;SDS011;56843;52.020;5.670;2023-06-22T05:35:54;20.53;;;6.03;;
69623;SDS011;56843;52.020;5.670;2023-06-22T05:37:25;14.83;;;6.77;;
69623;SDS011;56843;52.020;5.670;2023-06-22T05:38:56;11.93;;;6.57;;
69623;SDS011;56843;52.020;5.670;2023-06-22T05:40:27;10.60;;;4.93;;
69623;SDS011;56843;52.020;5.670;2023-06-22T05:41:58;16.38;;;8.52;;
69623;SDS011;56843;52.020;5.670;2023-06-22T05:43:28;16.87;;;7.03;;
69623;SDS011;56843;52.020;5.670;2023-06-22T05:44:59;14.83;;;7.17;;
69623;SDS011;56843;52.020;5.670;2023-06-22T05:46:29;11.05;;;6.07;;
69623;SDS011;56843;52.020;5.670;2023-06-22T05:48:00;17.77;;;9.50;;
69623;SDS011;56843;52.020;5.670;2023-06-22T05:49:31;17.23;;;8.10;;
69623;SDS011;56843;52.020;5.670;2023-06-22T05:51:03;15.45;;;6.00;;
69623;SDS011;56843;52.020;5.670;2023-06-22T05:52:33;12.77;;;6.17;;
69623;SDS011;56843;52.020;5.670;2023-06-22T05:54:04;17.13;;;8.95;;
69623;SDS011;56843;52.020;5.670;2023-06-22T05:55:35;16.53;;;7.67;;
69623;SDS011;56843;52.020;5.670;2023-06-22T05:57:05;16.03;;;7.93;;
69623;SDS011;56843;52.020;5.670;2023-06-22T05:58:36;14.60;;;7.83;;
69623;SDS011;56843;52.020;5.670;2023-06-22T06:00:06;10.85;;;5.75;;
69623;SDS011;56843;52.020;5.670;2023-06-22T06:01:40;14.07;;;7.20;;
69623;SDS011;56843;52.020;5.670;2023-06-22T06:03:11;14.05;;;6.85;;
69623;SDS011;56843;52.020;5.670;2023-06-22T06:04:42;12.43;;;5.50;;
69623;SDS011;56843;52.020;5.670;2023-06-22T06:06:12;13.17;;;6.97;;
69623;SDS011;56843;52.020;5.670;2023-06-22T06:07:44;13.70;;;5.37;;
69623;SDS011;56843;52.020;5.670;2023-06-22T06:09:15;14.10;;;7.33;;
69623;SDS011;56843;52.020;5.670;2023-06-22T06:10:45;10.73;;;4.75;;
69623;SDS011;56843;52.020;5.670;2023-06-22T06:12:16;8.70;;;3.50;;
69623;SDS011;56843;52.020;5.670;2023-06-22T06:13:46;8.77;;;4.70;;
69623;SDS011;56843;52.020;5.670;2023-06-22T06:15:17;12.37;;;5.37;;
69623;SDS011;56843;52.020;5.670;2023-06-22T06:16:48;14.23;;;5.35;;
69623;SDS011;56843;52.020;5.670;2023-06-22T06:18:19;10.90;;;3.72;;
69623;SDS011;56843;52.020;5.670;2023-06-22T06:19:50;9.40;;;4.63;;
69623;SDS011;56843;52.020;5.670;2023-06-22T06:21:20;9.27;;;5.10;;
69623;SDS011;56843;52.020;5.670;2023-06-22T06:22:51;9.68;;;3.17;;
69623;SDS011;56843;52.020;5.670;2023-06-22T06:24:22;9.80;;;4.95;;
69623;SDS011;56843;52.020;5.670;2023-06-22T06:25:52;13.83;;;6.53;;
69623;SDS011;56843;52.020;5.670;2023-06-22T06:27:23;10.90;;;4.37;;
69623;SDS011;56843;52.020;5.670;2023-06-22T06:28:59;8.57;;;3.28;;
69623;SDS011;56843;52.020;5.670;2023-06-22T06:30:30;10.68;;;5.10;;
69623;SDS011;56843;52.020;5.670;2023-06-22T06:32:01;8.68;;;3.92;;
69623;SDS011;56843;52.020;5.670;2023-06-22T06:33:32;8.73;;;2.77;;
69623;SDS011;56843;52.020;5.670;2023-06-22T06:35:02;8.55;;;3.80;;
69623;SDS011;56843;52.020;5.670;2023-06-22T06:36:33;11.20;;;4.57;;
69623;SDS011;56843;52.020;5.670;2023-06-22T06:38:04;10.23;;;3.80;;
69623;SDS011;56843;52.020;5.670;2023-06-22T06:39:34;7.68;;;2.80;;
69623;SDS011;56843;52.020;5.670;2023-06-22T06:41:05;4.57;;;2.00;;
69623;SDS011;56843;52.020;5.670;2023-06-22T06:42:39;9.40;;;4.10;;
69623;SDS011;56843;52.020;5.670;2023-06-22T06:44:11;12.60;;;5.18;;
69623;SDS011;56843;52.020;5.670;2023-06-22T06:45:42;5.97;;;1.98;;
69623;SDS011;56843;52.020;5.670;2023-06-22T06:47:12;4.50;;;1.70;;
69623;SDS011;56843;52.020;5.670;2023-06-22T06:48:43;5.27;;;2.20;;
69623;SDS011;56843;52.020;5.670;2023-06-22T06:50:14;4.43;;;1.42;;
69623;SDS011;56843;52.020;5.670;2023-06-22T06:51:44;8.98;;;3.38;;
69623;SDS011;56843;52.020;5.670;2023-06-22T06:53:15;4.67;;;1.90;;
69623;SDS011;56843;52.020;5.670;2023-06-22T06:54:45;4.77;;;2.17;;
69623;SDS011;56843;52.020;5.670;2023-06-22T06:56:16;4.20;;;1.40;;
69623;SDS011;56843;52.020;5.670;2023-06-22T06:57:47;4.82;;;1.70;;
69623;SDS011;56843;52.020;5.670;2023-06-22T06:59:18;8.00;;;2.00;;
69623;SDS011;56843;52.020;5.670;2023-06-22T07:00:48;5.38;;;1.48;;
69623;SDS011;56843;52.020;5.670;2023-06-22T07:02:19;5.20;;;1.90;;
69623;SDS011;56843;52.020;5.670;2023-06-22T07:03:50;6.97;;;2.28;;
69623;SDS011;56843;52.020;5.670;2023-06-22T07:05:21;3.87;;;1.47;;
69623;SDS011;56843;52.020;5.670;2023-06-22T07:06:51;6.57;;;2.38;;
69623;SDS011;56843;52.020;5.670;2023-06-22T07:08:22;4.43;;;1.50;;
69623;SDS011;56843;52.020;5.670;2023-06-22T07:09:52;5.10;;;1.97;;
69623;SDS011;56843;52.020;5.670;2023-06-22T07:11:23;10.20;;;2.30;;
69623;SDS011;56843;52.020;5.670;2023-06-22T07:12:53;4.77;;;1.80;;
69623;SDS011;56843;52.020;5.670;2023-06-22T07:14:24;3.97;;;1.45;;
69623;SDS011;56843;52.020;5.670;2023-06-22T07:15:54;4.10;;;1.50;;
69623;SDS011;56843;52.020;5.670;2023-06-22T07:17:25;4.97;;;1.80;;
69623;SDS011;56843;52.020;5.670;2023-06-22T07:18:55;4.38;;;1.27;;
69623;SDS011;56843;52.020;5.670;2023-06-22T07:20:26;5.00;;;1.90;;
69623;SDS011;56843;52.020;5.670;2023-06-22T07:21:57;5.87;;;2.23;;
69623;SDS011;56843;52.020;5.670;2023-06-22T07:23:27;7.13;;;2.20;;
69623;SDS011;56843;52.020;5.670;2023-06-22T07:24:58;3.50;;;1.30;;
69623;SDS011;56843;52.020;5.670;2023-06-22T07:26:28;4.45;;;1.60;;
69623;SDS011;56843;52.020;5.670;2023-06-22T07:28:00;3.87;;;1.60;;
69623;SDS011;56843;52.020;5.670;2023-06-22T07:29:32;5.85;;;2.10;;
69623;SDS011;56843;52.020;5.670;2023-06-22T07:31:03;5.63;;;1.52;;
69623;SDS011;56843;52.020;5.670;2023-06-22T07:32:34;6.40;;;1.65;;
69623;SDS011;56843;52.020;5.670;2023-06-22T07:34:05;8.15;;;2.10;;
69623;SDS011;56843;52.020;5.670;2023-06-22T07:35:35;4.93;;;1.80;;
69623;SDS011;56843;52.020;5.670;2023-06-22T07:37:06;4.17;;;1.40;;
69623;SDS011;56843;52.020;5.670;2023-06-22T07:38:36;7.97;;;2.30;;
69623;SDS011;56843;52.020;5.670;2023-06-22T07:40:07;4.68;;;1.25;;
69623;SDS011;56843;52.020;5.670;2023-06-22T07:41:39;3.55;;;1.25;;
69623;SDS011;56843;52.020;5.670;2023-06-22T07:43:13;3.60;;;1.27;;
69623;SDS011;56843;52.020;5.670;2023-06-22T07:44:43;6.83;;;2.00;;
69623;SDS011;56843;52.020;5.670;2023-06-22T07:46:13;4.83;;;1.87;;
69623;SDS011;56843;52.020;5.670;2023-06-22T07:47:44;4.32;;;1.35;;
69623;SDS011;56843;52.020;5.670;2023-06-22T07:49:15;5.27;;;1.60;;
69623;SDS011;56843;52.020;5.670;2023-06-22T07:50:46;4.68;;;1.55;;
69623;SDS011;56843;52.020;5.670;2023-06-22T07:52:17;5.27;;;1.70;;
69623;SDS011;56843;52.020;5.670;2023-06-22T07:53:47;3.73;;;1.50;;
69623;SDS011;56843;52.020;5.670;2023-06-22T07:55:18;4.90;;;2.30;;
69623;SDS011;56843;52.020;5.670;2023-06-22T07:56:49;4.40;;;1.70;;
69623;SDS011;56843;52.020;5.670;2023-06-22T07:58:19;3.57;;;1.37;;
69623;SDS011;56843;52.020;5.670;2023-06-22T07:59:50;4.07;;;1.63;;
69623;SDS011;56843;52.020;5.670;2023-06-22T08:01:21;7.22;;;2.55;;
69623;SDS011;56843;52.020;5.670;2023-06-22T08:02:51;3.77;;;1.63;;
69623;SDS011;56843;52.020;5.670;2023-06-22T08:04:22;3.67;;;1.55;;
69623;SDS011;56843;52.020;5.670;2023-06-22T08:05:53;4.30;;;1.90;;
69623;SDS011;56843;52.020;5.670;2023-06-22T08:07:23;6.03;;;2.17;;
69623;SDS011;56843;52.020;5.670;2023-06-22T08:08:54;4.70;;;1.85;;
69623;SDS011;56843;52.020;5.670;2023-06-22T08:10:27;4.95;;;1.63;;
69623;SDS011;56843;52.020;5.670;2023-06-22T08:11:57;5.90;;;2.50;;
69623;SDS011;56843;52.020;5.670;2023-06-22T08:13:29;4.38;;;1.80;;
69623;SDS011;56843;52.020;5.670;2023-06-22T08:14:59;7.35;;;3.60;;
69623;SDS011;56843;52.020;5.670;2023-06-22T08:16:30;5.00;;;1.83;;
69623;SDS011;56843;52.020;5.670;2023-06-22T08:18:00;8.73;;;3.30;;
69623;SDS011;56843;52.020;5.670;2023-06-22T08:19:31;8.18;;;3.42;;
69623;SDS011;56843;52.020;5.670;2023-06-22T08:21:01;5.73;;;2.10;;
69623;SDS011;56843;52.020;5.670;2023-06-22T08:22:32;4.20;;;1.80;;
69623;SDS011;56843;52.020;5.670;2023-06-22T08:24:03;15.55;;;1.85;;
69623;SDS011;56843;52.020;5.670;2023-06-22T08:25:34;5.70;;;1.88;;
69623;SDS011;56843;52.020;5.670;2023-06-22T08:27:06;5.37;;;1.87;;
69623;SDS011;56843;52.020;5.670;2023-06-22T08:28:38;4.43;;;1.63;;
69623;SDS011;56843;52.020;5.670;2023-06-22T08:30:09;7.53;;;2.15;;
69623;SDS011;56843;52.020;5.670;2023-06-22T08:31:41;5.47;;;1.95;;
69623;SDS011;56843;52.020;5.670;2023-06-22T08:33:11;3.37;;;1.30;;
69623;SDS011;56843;52.020;5.670;2023-06-22T08:34:42;5.22;;;2.03;;
69623;SDS011;56843;52.020;5.670;2023-06-22T08:36:13;5.63;;;1.60;;
69623;SDS011;56843;52.020;5.670;2023-06-22T08:37:43;7.93;;;3.00;;
69623;SDS011;56843;52.020;5.670;2023-06-22T08:39:15;3.65;;;1.60;;
69623;SDS011;56843;52.020;5.670;2023-06-22T08:40:46;6.32;;;2.17;;
69623;SDS011;56843;52.020;5.670;2023-06-22T08:42:17;5.85;;;2.00;;
69623;SDS011;56843;52.020;5.670;2023-06-22T08:43:47;5.97;;;2.63;;
69623;SDS011;56843;52.020;5.670;2023-06-22T08:45:18;6.63;;;2.53;;
69623;SDS011;56843;52.020;5.670;2023-06-22T08:46:48;5.60;;;1.80;;
69623;SDS011;56843;52.020;5.670;2023-06-22T08:48:19;4.40;;;1.90;;
69623;SDS011;56843;52.020;5.670;2023-06-22T08:49:49;4.95;;;2.00;;
69623;SDS011;56843;52.020;5.670;2023-06-22T08:51:20;4.57;;;1.80;;
69623;SDS011;56843;52.020;5.670;2023-06-22T08:52:50;8.37;;;2.60;;
69623;SDS011;56843;52.020;5.670;2023-06-22T08:54:21;4.00;;;1.60;;
69623;SDS011;56843;52.020;5.670;2023-06-22T08:55:51;3.83;;;1.70;;
69623;SDS011;56843;52.020;5.670;2023-06-22T08:57:22;4.30;;;1.67;;
69623;SDS011;56843;52.020;5.670;2023-06-22T08:58:52;4.13;;;1.63;;
69623;SDS011;56843;52.020;5.670;2023-06-22T09:00:23;4.23;;;1.73;;
69623;SDS011;56843;52.020;5.670;2023-06-22T09:01:53;3.63;;;1.60;;
69623;SDS011;56843;52.020;5.670;2023-06-22T09:03:24;5.03;;;1.40;;
69623;SDS011;56843;52.020;5.670;2023-06-22T09:04:59;4.07;;;1.40;;
69623;SDS011;56843;52.020;5.670;2023-06-22T09:06:33;5.20;;;1.93;;
69623;SDS011;56843;52.020;5.670;2023-06-22T09:08:03;4.70;;;1.60;;
69623;SDS011;56843;52.020;5.670;2023-06-22T09:09:34;4.70;;;1.70;;
69623;SDS011;56843;52.020;5.670;2023-06-22T09:11:04;4.78;;;1.70;;
69623;SDS011;56843;52.020;5.670;2023-06-22T09:12:35;3.87;;;1.40;;
69623;SDS011;56843;52.020;5.670;2023-06-22T09:14:08;8.00;;;2.47;;
69623;SDS011;56843;52.020;5.670;2023-06-22T09:15:39;3.13;;;1.20;;
69623;SDS011;56843;52.020;5.670;2023-06-22T09:17:09;4.60;;;1.43;;
69623;SDS011;56843;52.020;5.670;2023-06-22T09:18:39;3.93;;;1.40;;